createdAt,value
2022-12-31T00:04:33.336Z,14.98
2022-12-31T00:14:39.255Z,7.68
2022-12-31T00:24:42.299Z,8.13
2022-12-31T00:34:46.877Z,9.88
2022-12-31T00:44:49.866Z,9.10
2022-12-31T00:54:54.908Z,7.93
2022-12-31T01:04:58.305Z,6.47
2022-12-31T01:15:03.266Z,7.30
2022-12-31T01:25:08.697Z,7.72
2022-12-31T01:35:13.679Z,7.30
2022-12-31T01:45:17.642Z,5.03
2022-12-31T01:55:25.594Z,7.50
2022-12-31T02:05:33.704Z,6.57
2022-12-31T02:15:48.907Z,5.82
2022-12-31T02:26:17.773Z,5.20
2022-12-31T02:36:26.638Z,6.82
2022-12-31T02:46:37.238Z,7.90
2022-12-31T02:56:52.244Z,6.60
2022-12-31T03:06:56.418Z,6.95
2022-12-31T03:17:00.865Z,6.32
2022-12-31T03:27:04.163Z,3.83
2022-12-31T03:37:09.153Z,5.30
2022-12-31T03:47:13.625Z,6.30
2022-12-31T03:57:19.094Z,9.60
2022-12-31T04:07:22.585Z,3.72
2022-12-31T04:17:27.812Z,7.80
2022-12-31T04:27:31.422Z,9.20
2022-12-31T04:37:36.434Z,7.60
2022-12-31T04:47:39.361Z,11.55
2022-12-31T04:57:43.946Z,4.15
2022-12-31T05:07:47.945Z,3.22
2022-12-31T05:17:52.579Z,5.00
2022-12-31T05:27:55.487Z,2.78
2022-12-31T05:38:00.932Z,4.80
2022-12-31T05:48:04.252Z,3.38
2022-12-31T05:58:08.642Z,4.75
2022-12-31T06:08:12.612Z,3.65
2022-12-31T06:18:17.041Z,3.42
2022-12-31T06:28:20.671Z,4.65
2022-12-31T06:38:25.707Z,5.53
2022-12-31T06:48:28.674Z,6.38
2022-12-31T06:58:34.223Z,17.13
2022-12-31T07:08:52.324Z,8.90
2022-12-31T07:19:14.069Z,10.70
2022-12-31T07:29:23.032Z,8.90
2022-12-31T07:39:39.740Z,6.53
2022-12-31T07:49:44.693Z,10.57
2022-12-31T08:00:01.976Z,6.93
2022-12-31T08:10:17.310Z,5.70
2022-12-31T08:20:22.339Z,7.43
2022-12-31T08:30:30.400Z,4.30
2022-12-31T08:40:45.136Z,5.72
2022-12-31T08:50:49.337Z,4.25
2022-12-31T09:00:59.859Z,5.43
2022-12-31T09:11:11.427Z,8.32
2022-12-31T09:21:18.143Z,6.43
2022-12-31T09:31:32.391Z,9.30
2022-12-31T09:42:14.998Z,9.00
2022-12-31T09:52:26.376Z,8.85
2022-12-31T10:02:54.301Z,9.77
2022-12-31T10:13:43.581Z,9.40
2022-12-31T10:24:05.285Z,10.70
2022-12-31T10:34:16.486Z,13.88
2022-12-31T10:44:54.132Z,15.00
2022-12-31T10:55:27.504Z,13.43
2022-12-31T11:06:15.327Z,10.35
2022-12-31T11:16:38.554Z,7.88
2022-12-31T11:26:56.537Z,11.40
2022-12-31T11:37:20.727Z,8.65
2022-12-31T11:48:20.506Z,10.65
2022-12-31T11:58:16.119Z,6.43
2022-12-31T12:08:19.473Z,9.00
2022-12-31T12:18:29.963Z,6.68
2022-12-31T12:28:44.436Z,7.03
2022-12-31T12:38:49.269Z,8.35
2022-12-31T12:48:56.204Z,7.30
2022-12-31T12:59:38.171Z,5.90
2022-12-31T13:09:54.964Z,8.82
2022-12-31T13:20:05.642Z,7.55
2022-12-31T13:30:20.284Z,7.65
2022-12-31T13:40:31.075Z,8.73
2022-12-31T13:50:39.634Z,8.82
2022-12-31T14:00:48.238Z,10.07
2022-12-31T14:11:05.293Z,10.10
2022-12-31T14:21:16.300Z,9.95
2022-12-31T14:31:34.378Z,6.75
2022-12-31T14:42:01.879Z,6.80
2022-12-31T14:52:09.895Z,11.35
2022-12-31T15:02:27.592Z,9.70
2022-12-31T15:12:50.740Z,10.57
2022-12-31T15:22:55.917Z,8.00
2022-12-31T15:33:02.570Z,11.38
2022-12-31T15:43:13.332Z,11.77
2022-12-31T15:53:27.990Z,10.55
2022-12-31T16:03:33.051Z,9.75
2022-12-31T16:13:39.705Z,10.68
2022-12-31T16:23:50.323Z,8.52
2022-12-31T16:34:04.994Z,7.38
2022-12-31T16:44:25.474Z,10.13
2022-12-31T16:54:31.397Z,9.70
2022-12-31T17:04:41.490Z,11.02
2022-12-31T17:14:51.982Z,12.18
2022-12-31T17:25:04.354Z,9.35
2022-12-31T17:35:28.674Z,12.73
2022-12-31T17:45:40.445Z,11.77
2022-12-31T17:55:47.602Z,10.13
2022-12-31T18:05:54.767Z,14.50
2022-12-31T18:15:57.756Z,8.82
2022-12-31T18:26:03.450Z,14.05
2022-12-31T18:36:17.103Z,12.27
2022-12-31T18:46:25.056Z,10.18
2022-12-31T18:56:43.239Z,11.02
2022-12-31T19:06:53.849Z,9.68
2022-12-31T19:27:14.675Z,11.45
2022-12-31T19:37:17.859Z,10.70
2022-12-31T19:57:59.840Z,8.73
2022-12-31T20:08:04.527Z,9.18
2022-12-31T20:18:08.263Z,11.85
2022-12-31T20:28:12.936Z,9.40
2022-12-31T20:38:15.948Z,13.82
2022-12-31T20:48:36.198Z,17.50
2022-12-31T20:58:39.262Z,15.50
2022-12-31T21:09:00.743Z,14.40
2022-12-31T21:19:05.714Z,16.70
2022-12-31T21:29:11.449Z,19.98
2022-12-31T21:39:15.524Z,22.75
2022-12-31T21:49:20.377Z,18.48
2022-12-31T21:59:46.465Z,17.08
2022-12-31T22:09:51.069Z,23.70
2022-12-31T22:20:25.421Z,28.20
2022-12-31T22:30:18.871Z,23.50
2022-12-31T22:40:21.894Z,24.08
2022-12-31T22:50:26.341Z,19.58
2022-12-31T23:00:39.635Z,17.95
2022-12-31T23:11:05.921Z,31.40
2022-12-31T23:21:28.887Z,29.17
2022-12-31T23:31:33.403Z,24.80
2022-12-31T23:41:36.651Z,25.55
2022-12-31T23:51:41.062Z,21.38
